Time;durP1;ratioP1;P1;durP2;ratioP2;P2;SDS_P1;SDS_P2;PMS_P1;PMS_P2;Temp;Humidity;BMP_temperature;BMP_pressure;BME280_temperature;BME280_humidity;BME280_pressure;Samples;Min_cycle;Max_cycle;Signal;HPM_P1;HPM_P2
2023/02/27 00:00:13;;;;;;;;;8.00;7.00;27.90;31.20;;;;;;109737;1257;54568;-63
2023/02/27 00:02:59;;;;;;;;;9.50;8.50;27.80;31.20;;;;;;109668;1260;55639;-62
2023/02/27 00:05:26;;;;;;;;;11.00;8.50;27.80;31.20;;;;;;109896;1257;49790;-63
2023/02/27 00:07:52;;;;;;;;;9.00;8.00;27.80;31.10;;;;;;109813;1259;49305;-61
2023/02/27 00:10:18;;;;;;;;;11.00;10.00;27.80;31.30;;;;;;109643;1259;45131;-61
2023/02/27 00:12:45;;;;;;;;;10.00;9.00;27.80;31.10;;;;;;109814;1255;54803;-62
2023/02/27 00:15:15;;;;;;;;;9.67;7.00;27.70;31.00;;;;;;109628;1259;55061;-62
2023/02/27 00:17:42;;;;;;;;;11.00;10.00;27.60;30.90;;;;;;109655;1260;50052;-62
2023/02/27 00:20:12;;;;;;;;;10.00;8.00;27.60;30.90;;;;;;109702;1261;49922;-62
2023/02/27 00:22:39;;;;;;;;;10.00;9.00;27.60;30.90;;;;;;109703;1256;45289;-62
2023/02/27 00:25:06;;;;;;;;;9.00;8.00;27.50;30.90;;;;;;109653;1260;54263;-62
2023/02/27 00:27:33;;;;;;;;;9.50;7.50;27.50;30.90;;;;;;109649;1260;53836;-63
2023/02/27 00:30:00;;;;;;;;;8.00;7.00;27.50;31.40;;;;;;109587;1255;48665;-62
2023/02/27 00:32:26;;;;;;;;;8.50;7.50;27.40;30.90;;;;;;109681;1255;49588;-63
2023/02/27 00:34:52;;;;;;;;;12.50;9.75;27.30;31.00;;;;;;109807;1260;45501;-63
2023/02/27 00:37:18;;;;;;;;;9.50;8.50;27.30;30.80;;;;;;109715;1255;56427;-63
2023/02/27 00:39:44;;;;;;;;;10.00;7.50;27.20;30.70;;;;;;109713;1260;53969;-63
2023/02/27 00:42:11;;;;;;;;;9.00;8.00;27.20;30.70;;;;;;110044;1255;49632;-63
2023/02/27 00:44:37;;;;;;;;;10.00;9.00;27.10;30.60;;;;;;109901;1255;49261;-63
2023/02/27 00:47:03;;;;;;;;;9.00;8.00;27.10;30.80;;;;;;109697;1257;45619;-63
2023/02/27 00:49:30;;;;;;;;;11.00;10.00;27.00;30.60;;;;;;109666;1259;56634;-62
2023/02/27 00:51:56;;;;;;;;;9.00;8.00;27.00;30.50;;;;;;109762;1255;54389;-62
2023/02/27 00:54:22;;;;;;;;;10.00;9.00;26.90;30.70;;;;;;109726;1260;49209;-62
2023/02/27 00:56:48;;;;;;;;;9.00;8.00;26.80;30.50;;;;;;109699;1255;49264;-62
2023/02/27 00:59:14;;;;;;;;;10.00;8.00;26.70;30.80;;;;;;109823;1255;45630;-62
2023/02/27 01:01:41;;;;;;;;;9.50;8.50;26.70;30.50;;;;;;109762;1256;55774;-63
2023/02/27 01:04:07;;;;;;;;;8.50;7.50;26.60;30.50;;;;;;109676;1255;54822;-60
2023/02/27 01:06:33;;;;;;;;;9.67;7.67;26.50;30.50;;;;;;109772;1255;48991;-61
2023/02/27 01:08:59;;;;;;;;;8.00;7.00;26.50;30.70;;;;;;109801;1259;49514;-62
2023/02/27 01:11:26;;;;;;;;;9.00;7.00;26.50;30.60;;;;;;109599;1255;45525;-61
2023/02/27 01:13:52;;;;;;;;;7.00;6.00;26.40;30.80;;;;;;109659;1255;55778;-62
2023/02/27 01:16:18;;;;;;;;;9.00;8.00;26.40;30.90;;;;;;109803;1259;53535;-61
2023/02/27 01:18:44;;;;;;;;;9.33;8.00;26.50;30.80;;;;;;109814;1255;49106;-62
2023/02/27 01:21:10;;;;;;;;;9.00;8.00;26.50;30.80;;;;;;109791;1259;49318;-61
2023/02/27 01:23:37;;;;;;;;;8.00;7.00;26.50;30.80;;;;;;109738;1255;46316;-63
2023/02/27 01:26:04;;;;;;;;;9.00;8.00;26.50;30.80;;;;;;109890;1258;55842;-62
2023/02/27 01:28:30;;;;;;;;;9.00;8.00;26.60;30.90;;;;;;109887;1259;53376;-62
2023/02/27 01:30:56;;;;;;;;;8.50;7.50;26.60;30.90;;;;;;109737;1255;49508;-61
2023/02/27 01:33:22;;;;;;;;;8.00;7.00;26.70;30.80;;;;;;109553;1257;49908;-62
2023/02/27 01:35:49;;;;;;;;;8.00;7.00;26.70;30.80;;;;;;109579;1260;46142;-62
2023/02/27 01:38:15;;;;;;;;;8.00;7.33;26.80;30.80;;;;;;109604;1257;55942;-62
2023/02/27 01:40:42;;;;;;;;;8.00;7.00;26.90;30.80;;;;;;109604;1255;54743;-62
2023/02/27 01:43:14;;;;;;;;;8.00;7.00;26.90;30.80;;;;;;109756;1255;49200;-62
2023/02/27 01:45:42;;;;;;;;;8.00;7.00;27.00;30.80;;;;;;109596;1261;48935;-62
2023/02/27 01:48:28;;;;;;;;;8.00;7.00;27.10;30.80;;;;;;109604;1260;45276;-62
2023/02/27 01:51:00;;;;;;;;;9.00;8.00;27.20;30.80;;;;;;109625;1260;55515;-62
2023/02/27 01:53:28;;;;;;;;;9.00;8.00;27.30;30.90;;;;;;109584;1260;55162;-62
2023/02/27 01:55:58;;;;;;;;;8.00;7.00;27.40;30.90;;;;;;109737;1259;48930;-62
2023/02/27 01:58:25;;;;;;;;;9.00;8.00;27.50;31.10;;;;;;109790;1255;50060;-62
2023/02/27 02:00:52;;;;;;;;;8.00;7.00;27.50;30.80;;;;;;109671;1257;45537;-63
2023/02/27 02:03:33;;;;;;;;;8.50;7.00;27.60;30.80;;;;;;109589;1257;56027;-60
2023/02/27 02:06:01;;;;;;;;;7.50;6.50;27.60;30.80;;;;;;109659;1259;54261;-63
2023/02/27 02:08:32;;;;;;;;;8.00;7.00;27.70;31.00;;;;;;109643;1256;50254;-63
2023/02/27 02:10:59;;;;;;;;;8.00;7.00;27.80;30.80;;;;;;109604;1260;49179;-63
2023/02/27 02:13:26;;;;;;;;;8.75;7.75;27.80;30.80;;;;;;109576;1258;45815;-63
2023/02/27 02:16:03;;;;;;;;;8.00;7.00;27.80;31.00;;;;;;109595;1260;56253;-63
2023/02/27 02:18:42;;;;;;;;;9.00;8.00;27.90;30.80;;;;;;109607;1257;54239;-63
2023/02/27 02:21:26;;;;;;;;;7.00;6.00;27.90;31.30;;;;;;109806;1255;49505;-61
2023/02/27 02:24:23;;;;;;;;;10.00;8.00;27.90;30.70;;;;;;109981;1260;49811;-62
2023/02/27 02:27:17;;;;;;;;;9.33;8.00;27.90;30.70;;;;;;109697;1255;45637;-62
2023/02/27 02:30:05;;;;;;;;;9.00;8.00;27.90;30.70;;;;;;109733;1260;55923;-62
2023/02/27 02:32:47;;;;;;;;;9.00;7.00;27.90;30.70;;;;;;109868;1259;54459;-62
2023/02/27 02:35:39;;;;;;;;;9.00;8.00;27.90;30.70;;;;;;109827;1259;49754;-63
2023/02/27 02:38:05;;;;;;;;;8.00;7.00;27.90;30.60;;;;;;109765;1260;49253;-63
2023/02/27 02:40:53;;;;;;;;;8.50;7.50;27.90;30.60;;;;;;109582;1256;45585;-62
2023/02/27 02:43:24;;;;;;;;;8.00;7.00;27.80;30.60;;;;;;109641;1260;56075;-63
2023/02/27 02:46:19;;;;;;;;;7.00;6.00;27.80;30.60;;;;;;109908;1257;55021;-62
2023/02/27 02:48:55;;;;;;;;;7.00;6.00;27.70;30.50;;;;;;109746;1259;49542;-62
2023/02/27 02:51:46;;;;;;;;;7.00;7.00;27.70;30.70;;;;;;109918;1261;49505;-62
2023/02/27 02:54:26;;;;;;;;;8.00;7.00;27.70;30.50;;;;;;109611;1260;46256;-60
2023/02/27 02:57:10;;;;;;;;;11.00;8.00;27.60;30.40;;;;;;109639;1255;55938;-62
2023/02/27 02:59:58;;;;;;;;;9.00;8.00;27.60;30.60;;;;;;109596;1255;54259;-63
2023/02/27 03:02:28;;;;;;;;;8.00;7.00;27.60;30.60;;;;;;109864;1255;50204;-62
2023/02/27 03:05:03;;;;;;;;;8.00;7.00;27.50;30.30;;;;;;109678;1255;49540;-62
2023/02/27 03:07:33;;;;;;;;;7.00;6.00;27.40;30.30;;;;;;109648;1255;45374;-62
2023/02/27 03:10:08;;;;;;;;;7.00;6.00;27.30;30.20;;;;;;109616;1256;56802;-64
2023/02/27 03:12:38;;;;;;;;;9.00;8.00;27.30;30.20;;;;;;109675;1259;53433;-61
2023/02/27 03:15:08;;;;;;;;;7.00;6.00;27.30;30.20;;;;;;109588;1257;48744;-61
2023/02/27 03:17:42;;;;;;;;;8.00;7.00;27.20;30.10;;;;;;109613;1259;48859;-63
2023/02/27 03:20:21;;;;;;;;;7.50;6.50;27.10;30.60;;;;;;109818;1257;45900;-62
2023/02/27 03:22:50;;;;;;;;;7.00;6.00;27.00;30.00;;;;;;109702;1259;56655;-63
2023/02/27 03:25:18;;;;;;;;;7.00;6.00;27.00;30.10;;;;;;109607;1255;53878;-62
2023/02/27 03:27:50;;;;;;;;;7.00;6.00;26.90;30.20;;;;;;109718;1257;49331;-63
2023/02/27 03:30:29;;;;;;;;;8.00;7.00;26.90;30.00;;;;;;109547;1261;50205;-62
2023/02/27 03:33:01;;;;;;;;;8.33;7.33;26.80;30.00;;;;;;109746;1255;45424;-61
2023/02/27 03:35:41;;;;;;;;;8.00;7.00;26.70;30.00;;;;;;109664;1257;55171;-62
2023/02/27 03:38:17;;;;;;;;;8.00;7.00;26.70;30.20;;;;;;109838;1261;53389;-62
2023/02/27 03:41:02;;;;;;;;;9.00;7.00;26.60;30.20;;;;;;109698;1257;48811;-61
2023/02/27 03:43:52;;;;;;;;;9.67;8.33;26.50;30.00;;;;;;109627;1255;49496;-61
2023/02/27 03:46:21;;;;;;;;;8.00;7.00;26.50;30.10;;;;;;109604;1260;45900;-61
2023/02/27 03:48:48;;;;;;;;;9.00;7.00;26.50;30.70;;;;;;109777;1261;55832;-62
2023/02/27 03:51:20;;;;;;;;;8.00;7.00;26.50;30.40;;;;;;109857;1260;53995;-62
2023/02/27 03:54:04;;;;;;;;;7.50;6.00;26.50;30.30;;;;;;109618;1256;49670;-62
2023/02/27 03:56:37;;;;;;;;;8.00;7.00;26.50;30.30;;;;;;109686;1260;49371;-62
2023/02/27 03:59:04;;;;;;;;;8.50;7.50;26.60;30.40;;;;;;109587;1259;45783;-63
2023/02/27 04:01:30;;;;;;;;;8.00;7.00;26.60;30.60;;;;;;109655;1257;55227;-62
2023/02/27 04:04:04;;;;;;;;;8.00;7.00;26.70;30.50;;;;;;109708;1262;53981;-63
2023/02/27 04:09:27;;;;;;;;;8.00;7.00;26.80;30.40;;;;;;109596;1255;49633;-62
2023/02/27 04:12:08;;;;;;;;;7.00;6.00;26.90;31.00;;;;;;109728;1260;45384;-63
2023/02/27 04:15:04;;;;;;;;;8.00;7.00;26.90;30.40;;;;;;109737;1260;55384;-63
2023/02/27 04:17:33;;;;;;;;;8.00;7.00;27.00;30.40;;;;;;109590;1255;55429;-63
2023/02/27 04:20:19;;;;;;;;;7.00;6.00;27.10;30.40;;;;;;109935;1255;49029;-64
2023/02/27 04:22:54;;;;;;;;;7.00;6.00;27.30;30.40;;;;;;109933;1260;48525;-64
2023/02/27 04:25:30;;;;;;;;;9.00;7.00;27.40;30.70;;;;;;109857;1255;46090;-62
2023/02/27 04:28:16;;;;;;;;;7.00;6.00;27.40;30.50;;;;;;109833;1255;55712;-61
2023/02/27 04:30:57;;;;;;;;;7.50;6.00;27.50;30.60;;;;;;109711;1255;53745;-61
2023/02/27 04:33:32;;;;;;;;;7.00;6.00;27.60;30.60;;;;;;109695;1259;49514;-62
2023/02/27 04:36:07;;;;;;;;;7.00;6.33;27.70;30.40;;;;;;109793;1256;50404;-62
2023/02/27 04:38:33;;;;;;;;;8.00;7.00;27.70;30.40;;;;;;109794;1255;46277;-62
2023/02/27 04:41:11;;;;;;;;;8.00;7.00;27.80;30.50;;;;;;109659;1255;55736;-62
2023/02/27 04:43:39;;;;;;;;;7.00;6.00;27.80;30.40;;;;;;109920;1257;53646;-62
2023/02/27 04:46:08;;;;;;;;;7.00;6.00;27.90;30.70;;;;;;109714;1257;49416;-62
2023/02/27 04:48:40;;;;;;;;;8.00;7.00;27.90;30.40;;;;;;109795;1260;49606;-62
2023/02/27 04:51:12;;;;;;;;;7.50;6.50;27.90;30.30;;;;;;109562;1260;46262;-61
2023/02/27 04:53:50;;;;;;;;;7.00;6.00;27.90;30.30;;;;;;109551;1258;55862;-62
2023/02/27 04:56:22;;;;;;;;;7.50;6.50;28.00;30.60;;;;;;109547;1257;53843;-62
2023/02/27 04:59:09;;;;;;;;;7.00;6.00;28.00;30.50;;;;;;109585;1255;49471;-61
2023/02/27 05:01:40;;;;;;;;;9.00;6.00;28.00;30.40;;;;;;109445;1261;48372;-61
2023/02/27 05:04:09;;;;;;;;;7.67;6.67;28.00;30.50;;;;;;109614;1255;45336;-61
2023/02/27 05:06:37;;;;;;;;;7.00;6.00;28.00;30.20;;;;;;109651;1259;55693;-61
2023/02/27 05:09:19;;;;;;;;;7.00;6.00;28.00;30.10;;;;;;109724;1260;54013;-61
2023/02/27 05:11:59;;;;;;;;;8.00;7.00;27.90;30.10;;;;;;109795;1255;48962;-62
2023/02/27 05:14:36;;;;;;;;;8.50;7.50;27.90;30.40;;;;;;109969;1256;49122;-62
2023/02/27 05:17:08;;;;;;;;;9.00;8.00;27.90;30.10;;;;;;109848;1255;45235;-61
2023/02/27 05:19:37;;;;;;;;;7.00;6.00;27.90;30.10;;;;;;109800;1258;55702;-62
2023/02/27 05:22:22;;;;;;;;;8.00;6.33;27.80;30.30;;;;;;110280;1255;54134;-60
2023/02/27 05:25:10;;;;;;;;;8.00;7.00;27.80;30.50;;;;;;109791;1255;48961;-61
2023/02/27 05:28:01;;;;;;;;;7.00;6.00;27.70;30.50;;;;;;109772;1260;49363;-62
2023/02/27 05:30:40;;;;;;;;;8.00;7.00;27.70;30.30;;;;;;109797;1258;45299;-61
2023/02/27 05:33:15;;;;;;;;;8.00;7.00;27.60;30.20;;;;;;110187;1255;55759;-62
2023/02/27 05:35:47;;;;;;;;;9.00;8.00;27.60;30.30;;;;;;109793;1259;53829;-62
2023/02/27 05:38:15;;;;;;;;;8.00;7.00;27.50;30.10;;;;;;109987;1255;50835;-63
2023/02/27 05:40:49;;;;;;;;;7.50;6.50;27.50;30.00;;;;;;109709;1257;49328;-62
2023/02/27 05:43:19;;;;;;;;;9.00;7.00;27.40;30.00;;;;;;110113;1260;45417;-63
2023/02/27 05:45:48;;;;;;;;;8.00;7.00;27.40;30.00;;;;;;110093;1255;55334;-60
2023/02/27 05:48:21;;;;;;;;;7.00;6.00;27.40;30.00;;;;;;109640;1260;54150;-62
2023/02/27 05:50:49;;;;;;;;;8.00;7.00;27.40;30.40;;;;;;109373;1260;49672;-60
2023/02/27 05:53:18;;;;;;;;;7.00;6.00;27.30;29.90;;;;;;109198;1258;48626;-61
2023/02/27 05:55:48;;;;;;;;;8.00;7.00;27.20;29.90;;;;;;109613;1259;45436;-61
2023/02/27 05:58:19;;;;;;;;;9.00;7.50;27.20;29.90;;;;;;109648;1259;56933;-62
2023/02/27 06:00:57;;;;;;;;;8.00;7.00;27.10;29.90;;;;;;109774;1260;53232;-60
2023/02/27 06:03:25;;;;;;;;;7.00;6.00;27.00;29.90;;;;;;110119;1260;49794;-62
2023/02/27 06:05:53;;;;;;;;;8.00;7.00;26.90;29.90;;;;;;109661;1259;48665;-61
2023/02/27 06:08:19;;;;;;;;;;;26.90;29.90;;;;;;109807;1257;46330;-65
2023/02/27 06:10:45;;;;;;;;;8.00;7.00;26.90;29.90;;;;;;109848;1259;55142;-66
2023/02/27 06:13:12;;;;;;;;;11.00;9.00;26.80;30.00;;;;;;110189;1255;54398;-68
2023/02/27 06:15:38;;;;;;;;;11.00;10.00;26.70;30.80;;;;;;109560;1260;48652;-67
2023/02/27 06:18:04;;;;;;;;;10.00;9.00;26.70;32.00;;;;;;109666;1255;50220;-66
2023/02/27 06:20:31;;;;;;;;;15.00;11.00;26.60;31.50;;;;;;109582;1260;46759;-66
2023/02/27 06:22:57;;;;;;;;;14.00;11.00;26.60;31.70;;;;;;109771;1255;56068;-66
2023/02/27 06:25:23;;;;;;;;;15.00;10.67;26.50;31.80;;;;;;109642;1260;55083;-66
2023/02/27 06:27:49;;;;;;;;;12.67;9.33;26.50;31.80;;;;;;109602;1260;49445;-65
2023/02/27 06:30:16;;;;;;;;;16.00;10.00;26.40;31.80;;;;;;109655;1260;50105;-66
2023/02/27 06:32:42;;;;;;;;;13.00;12.00;26.30;31.90;;;;;;109723;1255;45371;-66
2023/02/27 06:35:09;;;;;;;;;16.67;14.00;26.30;31.80;;;;;;109549;1256;56158;-67
2023/02/27 06:37:36;;;;;;;;;16.00;10.50;26.20;31.80;;;;;;109704;1255;53526;-68
2023/02/27 06:40:04;;;;;;;;;11.00;8.00;26.10;31.50;;;;;;109782;1259;49189;-68
2023/02/27 06:42:31;;;;;;;;;12.00;9.00;26.10;31.50;;;;;;109807;1260;50011;-67
2023/02/27 06:44:57;;;;;;;;;14.67;12.33;26.00;31.50;;;;;;109676;1259;45537;-67
2023/02/27 06:47:24;;;;;;;;;10.00;9.00;25.90;31.40;;;;;;109797;1257;55968;-66
2023/02/27 06:49:50;;;;;;;;;17.00;11.00;25.90;31.40;;;;;;109742;1255;53678;-66
2023/02/27 06:52:16;;;;;;;;;17.50;12.00;25.80;31.20;;;;;;109667;1255;50305;-66
2023/02/27 06:54:42;;;;;;;;;13.00;12.00;25.70;31.40;;;;;;109598;1255;49038;-66
2023/02/27 06:57:08;;;;;;;;;11.00;8.00;25.70;31.40;;;;;;109643;1256;45452;-62
2023/02/27 06:59:35;;;;;;;;;10.00;8.50;25.60;31.30;;;;;;109632;1255;56588;-66
2023/02/27 07:02:01;;;;;;;;;15.00;11.00;25.50;31.30;;;;;;109649;1255;53590;-65
2023/02/27 07:04:28;;;;;;;;;13.00;12.00;25.50;31.30;;;;;;109652;1257;49370;-65
2023/02/27 07:06:55;;;;;;;;;12.00;10.00;25.40;31.50;;;;;;109474;1255;179831;-65
2023/02/27 07:09:22;;;;;;;;;15.75;12.75;25.40;31.30;;;;;;109634;1260;45485;-65
2023/02/27 07:11:48;;;;;;;;;13.33;10.00;25.30;31.30;;;;;;109659;1255;55091;-66
2023/02/27 07:14:15;;;;;;;;;12.00;11.00;25.20;31.50;;;;;;109622;1258;53723;-66
2023/02/27 07:16:42;;;;;;;;;13.50;10.00;25.20;31.40;;;;;;109587;1260;49708;-65
2023/02/27 07:19:09;;;;;;;;;14.00;11.00;25.10;31.30;;;;;;109622;1260;49130;-65
2023/02/27 07:21:35;;;;;;;;;15.00;9.00;25.00;31.40;;;;;;109694;1260;45824;-65
2023/02/27 07:24:03;;;;;;;;;9.33;8.00;24.90;31.60;;;;;;109587;1260;57290;-65
2023/02/27 07:26:29;;;;;;;;;11.00;9.00;24.90;31.40;;;;;;109606;1259;53877;-65
2023/02/27 07:28:56;;;;;;;;;18.00;10.50;24.80;31.40;;;;;;109589;1256;49465;-66
2023/02/27 07:31:22;;;;;;;;;10.67;9.33;24.80;31.70;;;;;;109640;1260;50592;-66
2023/02/27 07:33:48;;;;;;;;;14.00;11.00;24.70;31.50;;;;;;109610;1259;46107;-68
2023/02/27 07:36:14;;;;;;;;;12.00;11.00;24.60;31.50;;;;;;109761;1260;55296;-65
2023/02/27 07:38:40;;;;;;;;;11.50;10.00;24.60;31.50;;;;;;109570;1257;53684;-65
2023/02/27 07:41:06;;;;;;;;;12.00;10.00;24.60;31.60;;;;;;109585;1255;50499;-65
2023/02/27 07:43:33;;;;;;;;;12.00;8.50;24.50;31.50;;;;;;109626;1261;49825;-65
2023/02/27 07:46:02;;;;;;;;;9.00;8.00;24.50;31.60;;;;;;109598;1257;45231;-65
2023/02/27 07:48:30;;;;;;;;;12.00;9.50;24.40;32.00;;;;;;109801;1255;55646;-65
2023/02/27 07:50:56;;;;;;;;;12.00;10.00;24.40;31.60;;;;;;109688;1260;53668;-66
2023/02/27 07:53:23;;;;;;;;;13.00;10.25;24.30;31.50;;;;;;109639;1260;49187;-64
2023/02/27 07:55:50;;;;;;;;;15.00;10.00;24.30;31.60;;;;;;109630;1260;49846;-64
2023/02/27 07:58:16;;;;;;;;;11.00;9.00;24.30;31.60;;;;;;109689;1260;46141;-65
2023/02/27 08:00:42;;;;;;;;;13.00;10.00;24.20;31.50;;;;;;109691;1260;55978;-65
2023/02/27 08:03:09;;;;;;;;;12.00;10.00;24.20;31.80;;;;;;109686;1259;53900;-65
2023/02/27 08:05:35;;;;;;;;;11.00;10.00;24.10;31.60;;;;;;109751;1257;49520;-65
2023/02/27 08:08:02;;;;;;;;;10.00;8.00;24.10;31.60;;;;;;109778;1257;49874;-65
2023/02/27 08:10:28;;;;;;;;;13.00;9.50;24.00;31.60;;;;;;109731;1255;46057;-64
2023/02/27 08:12:55;;;;;;;;;11.00;10.00;24.00;31.60;;;;;;109710;1259;55175;-66
2023/02/27 08:15:21;;;;;;;;;11.00;10.00;24.00;31.90;;;;;;109703;1260;54179;-65
2023/02/27 08:17:47;;;;;;;;;13.00;11.00;23.90;31.60;;;;;;109684;1260;49938;-65
2023/02/27 08:20:14;;;;;;;;;10.00;8.00;23.90;31.60;;;;;;109621;1259;49230;-65
2023/02/27 08:22:41;;;;;;;;;11.00;9.00;23.90;31.70;;;;;;109647;1259;46449;-65
2023/02/27 08:25:12;;;;;;;;;10.00;9.00;23.80;31.70;;;;;;109787;1260;55092;-65
2023/02/27 08:27:39;;;;;;;;;10.00;9.00;23.80;31.10;;;;;;109645;1256;54569;-65
2023/02/27 08:30:07;;;;;;;;;11.00;9.00;23.80;31.60;;;;;;109770;1260;49650;-65
2023/02/27 08:32:33;;;;;;;;;10.00;9.00;23.70;31.60;;;;;;109637;1260;49422;-64
2023/02/27 08:35:01;;;;;;;;;9.50;8.00;23.70;31.70;;;;;;109719;1259;45087;-65
2023/02/27 08:37:28;;;;;;;;;11.00;8.00;23.70;31.70;;;;;;109691;1258;56240;-64
2023/02/27 08:39:54;;;;;;;;;11.00;9.50;23.70;31.70;;;;;;109603;1260;53988;-65
2023/02/27 08:42:20;;;;;;;;;12.00;11.00;23.60;31.70;;;;;;109651;1260;50227;-64
2023/02/27 08:44:49;;;;;;;;;12.00;10.00;23.60;31.70;;;;;;109636;1255;49385;-64
2023/02/27 08:47:16;;;;;;;;;10.00;8.50;23.60;32.00;;;;;;109654;1255;46149;-64
2023/02/27 08:49:42;;;;;;;;;18.50;13.00;23.60;31.90;;;;;;109616;1260;56208;-66
2023/02/27 08:52:09;;;;;;;;;12.00;9.00;23.60;31.80;;;;;;109680;1255;53325;-65
2023/02/27 08:54:36;;;;;;;;;10.00;8.00;23.50;31.80;;;;;;109575;1260;49229;-65
2023/02/27 08:57:03;;;;;;;;;11.50;9.00;23.50;32.00;;;;;;109815;1257;49453;-65
2023/02/27 08:59:30;;;;;;;;;13.00;9.00;23.50;31.80;;;;;;109655;1255;45626;-65
2023/02/27 09:01:56;;;;;;;;;12.00;9.00;23.40;31.80;;;;;;109786;1256;55877;-64
2023/02/27 09:04:22;;;;;;;;;10.00;9.00;23.40;31.80;;;;;;109614;1261;53602;-64
2023/02/27 09:06:48;;;;;;;;;12.00;8.50;23.40;31.90;;;;;;109596;1255;49762;-66
2023/02/27 09:09:15;;;;;;;;;11.00;9.50;23.40;32.10;;;;;;109632;1255;49839;-63
2023/02/27 09:11:41;;;;;;;;;11.00;9.00;23.30;31.80;;;;;;109782;1255;45736;-63
2023/02/27 09:14:07;;;;;;;;;10.00;8.50;23.30;31.90;;;;;;109597;1256;56160;-64
2023/02/27 09:16:34;;;;;;;;;10.00;8.50;23.30;31.90;;;;;;109801;1259;53841;-64
2023/02/27 09:19:00;;;;;;;;;16.00;10.00;23.20;31.90;;;;;;109615;1255;49845;-61
2023/02/27 09:21:27;;;;;;;;;12.00;11.00;23.20;31.40;;;;;;109593;1257;49226;-62
2023/02/27 09:23:57;;;;;;;;;13.00;9.00;23.20;32.00;;;;;;109634;1257;45296;-63
2023/02/27 09:26:24;;;;;;;;;11.50;8.50;23.10;32.00;;;;;;109716;1255;55477;-63
2023/02/27 09:28:50;;;;;;;;;9.00;8.00;23.10;31.90;;;;;;109625;1257;54362;-62
2023/02/27 09:31:17;;;;;;;;;17.00;9.50;23.10;32.20;;;;;;109757;1255;50289;-62
2023/02/27 09:33:43;;;;;;;;;11.00;9.50;23.00;31.90;;;;;;109637;1259;49349;-62
2023/02/27 09:36:10;;;;;;;;;11.00;8.00;23.00;31.90;;;;;;109663;1260;45801;-62
2023/02/27 09:38:37;;;;;;;;;11.50;10.00;23.00;31.90;;;;;;109593;1255;55404;-62
2023/02/27 09:41:04;;;;;;;;;14.00;10.00;23.00;32.00;;;;;;109598;1257;53275;-63
2023/02/27 09:43:42;;;;;;;;;11.00;8.50;23.00;32.00;;;;;;109831;1260;49357;-64
2023/02/27 09:46:17;;;;;;;;;10.00;8.50;22.90;32.00;;;;;;109653;1257;50157;-64
2023/02/27 09:48:50;;;;;;;;;12.00;9.00;22.90;32.00;;;;;;109761;1255;45705;-64
2023/02/27 09:51:17;;;;;;;;;13.00;10.00;22.90;32.10;;;;;;109722;1255;56570;-64
2023/02/27 09:54:03;;;;;;;;;12.00;10.00;22.90;32.10;;;;;;109588;1262;53829;-64
2023/02/27 09:56:53;;;;;;;;;11.00;9.00;22.90;32.30;;;;;;109526;1257;49908;-64
2023/02/27 09:59:40;;;;;;;;;11.00;9.00;22.90;32.10;;;;;;109555;1257;49180;-64
2023/02/27 10:02:12;;;;;;;;;10.50;8.00;22.80;32.00;;;;;;109586;1255;45260;-64
2023/02/27 10:05:00;;;;;;;;;11.00;9.00;22.80;32.00;;;;;;109585;1255;55307;-63
2023/02/27 10:07:26;;;;;;;;;12.00;10.00;22.80;32.00;;;;;;109693;1260;54500;-63
2023/02/27 10:10:20;;;;;;;;;12.00;9.00;22.80;32.10;;;;;;109823;1259;50579;-64
2023/02/27 10:13:05;;;;;;;;;11.00;9.00;22.80;32.10;;;;;;109705;1255;49824;-63
2023/02/27 10:15:39;;;;;;;;;;;22.70;32.10;;;;;;109732;1260;45488;-63
2023/02/27 10:18:11;;;;;;;;;12.67;9.00;22.70;32.00;;;;;;109750;1257;56647;-63
2023/02/27 10:20:42;;;;;;;;;33.00;30.00;22.70;32.10;;;;;;109645;1257;54209;-63
2023/02/27 10:23:16;;;;;;;;;45.00;36.00;22.70;35.20;;;;;;109778;1255;49348;-62
2023/02/27 10:25:45;;;;;;;;;44.00;34.00;22.60;37.60;;;;;;109660;1259;49077;-68
2023/02/27 10:28:15;;;;;;;;;38.50;31.50;22.70;38.90;;;;;;109672;1259;45748;-66
2023/02/27 10:30:50;;;;;;;;;39.00;33.00;22.70;39.80;;;;;;109806;1257;55957;-69
2023/02/27 10:33:39;;;;;;;;;39.00;32.50;22.80;40.20;;;;;;109789;1261;54006;-68
2023/02/27 10:36:11;;;;;;;;;35.00;31.50;22.80;39.50;;;;;;109686;1257;50881;-67
2023/02/27 10:38:50;;;;;;;;;33.00;29.00;22.80;38.90;;;;;;109814;1260;50149;-66
2023/02/27 10:41:18;;;;;;;;;32.33;29.00;22.80;38.50;;;;;;109693;1257;45084;-66
2023/02/27 10:43:44;;;;;;;;;31.00;25.00;22.80;38.20;;;;;;109583;1257;55103;-67
2023/02/27 10:46:37;;;;;;;;;28.50;27.00;22.80;37.50;;;;;;109647;1255;54572;-66
2023/02/27 10:49:12;;;;;;;;;29.00;24.00;22.80;37.60;;;;;;109499;1260;49041;-66
2023/02/27 10:51:39;;;;;;;;;33.50;26.00;22.80;37.40;;;;;;109740;1255;49352;-66
2023/02/27 10:54:12;;;;;;;;;28.00;24.00;22.80;36.90;;;;;;109540;1257;45842;-66
2023/02/27 10:56:39;;;;;;;;;27.00;23.00;22.80;37.00;;;;;;109746;1257;55972;-67
2023/02/27 10:59:14;;;;;;;;;27.50;24.00;22.70;36.70;;;;;;109720;1259;53788;-68
2023/02/27 11:02:16;;;;;;;;;24.00;21.33;22.70;36.60;;;;;;109686;1261;50208;-68
2023/02/27 11:04:53;;;;;;;;;25.00;22.00;22.70;36.50;;;;;;109448;1257;50274;-68
2023/02/27 11:07:33;;;;;;;;;28.00;22.00;22.70;36.30;;;;;;109773;1255;46797;-68
2023/02/27 11:10:04;;;;;;;;;24.00;21.00;22.70;36.10;;;;;;109774;1259;55721;-68
2023/02/27 11:12:33;;;;;;;;;22.00;20.00;22.60;36.00;;;;;;109742;1257;55000;-67
2023/02/27 11:15:05;;;;;;;;;27.00;22.00;22.60;35.90;;;;;;109584;1255;49923;-67
2023/02/27 11:17:33;;;;;;;;;24.00;21.00;22.60;35.70;;;;;;109672;1257;49022;-68
2023/02/27 11:20:04;;;;;;;;;26.00;21.00;22.60;35.70;;;;;;109791;1256;45784;-68
2023/02/27 11:22:31;;;;;;;;;26.50;23.00;22.60;35.60;;;;;;109653;1257;55987;-68
2023/02/27 11:25:23;;;;;;;;;25.00;21.00;22.60;35.60;;;;;;109764;1260;54101;-69
2023/02/27 11:27:51;;;;;;;;;21.00;20.00;22.60;35.70;;;;;;109735;1261;50088;-68
2023/02/27 11:30:27;;;;;;;;;21.00;19.00;22.60;35.60;;;;;;109657;1260;49513;-69
2023/02/27 11:32:58;;;;;;;;;21.00;19.33;22.70;36.10;;;;;;109659;1255;45210;-68
2023/02/27 11:35:29;;;;;;;;;19.00;16.00;22.80;35.50;;;;;;109748;1260;55714;-68
2023/02/27 11:38:00;;;;;;;;;18.50;17.00;22.90;35.30;;;;;;109678;1255;54425;-66
2023/02/27 11:40:31;;;;;;;;;20.00;18.00;23.00;35.20;;;;;;109624;1261;49775;-67
2023/02/27 11:43:03;;;;;;;;;15.00;14.00;23.10;35.20;;;;;;109596;1257;49505;-65
2023/02/27 11:45:38;;;;;;;;;15.00;14.00;23.30;35.10;;;;;;109734;1260;45426;-68
2023/02/27 11:48:15;;;;;;;;;15.00;14.00;23.40;35.00;;;;;;109632;1257;55827;-67
2023/02/27 11:50:54;;;;;;;;;14.50;13.00;23.60;35.20;;;;;;109596;1259;54342;-68
2023/02/27 11:53:28;;;;;;;;;17.00;13.00;23.70;34.90;;;;;;109661;1256;49654;-67
2023/02/27 11:55:58;;;;;;;;;16.00;13.00;23.90;35.10;;;;;;109640;1259;49728;-67
2023/02/27 11:58:28;;;;;;;;;14.00;12.00;24.00;34.70;;;;;;109568;1257;45414;-67
2023/02/27 12:01:01;;;;;;;;;14.00;13.00;24.20;34.70;;;;;;109610;1259;55543;-67
2023/02/27 12:03:39;;;;;;;;;16.00;13.00;24.30;34.70;;;;;;109525;1255;55672;-66
2023/02/27 12:06:17;;;;;;;;;13.00;11.00;24.50;34.60;;;;;;109668;1255;50004;-67
2023/02/27 12:08:48;;;;;;;;;12.00;11.00;24.60;34.70;;;;;;109737;1257;49478;-67
2023/02/27 12:11:36;;;;;;;;;13.50;12.00;24.80;34.50;;;;;;109552;1257;46569;-67
2023/02/27 12:14:23;;;;;;;;;15.00;13.00;24.90;34.50;;;;;;109537;1257;55955;-68
2023/02/27 12:17:07;;;;;;;;;11.00;10.00;25.00;34.90;;;;;;109591;1255;54142;-67
2023/02/27 12:19:46;;;;;;;;;12.50;10.00;25.10;34.50;;;;;;109846;1258;49864;-66
2023/02/27 12:22:28;;;;;;;;;12.67;10.00;25.20;34.30;;;;;;109758;1255;50142;-66
2023/02/27 12:25:18;;;;;;;;;14.00;12.00;25.30;34.30;;;;;;109618;1262;45914;-67
2023/02/27 12:27:53;;;;;;;;;14.00;13.00;25.30;34.10;;;;;;109656;1255;56818;-68
2023/02/27 12:30:35;;;;;;;;;13.50;11.75;25.40;34.00;;;;;;109727;1259;54151;-67
2023/02/27 12:33:19;;;;;;;;;12.50;11.50;25.50;33.90;;;;;;109561;1257;50253;-67
2023/02/27 12:35:52;;;;;;;;;11.00;10.00;25.50;33.90;;;;;;109582;1259;50875;-66
2023/02/27 12:38:21;;;;;;;;;12.00;11.00;25.50;33.80;;;;;;109676;1259;45642;-66
2023/02/27 12:41:18;;;;;;;;;14.00;11.00;25.50;33.70;;;;;;109786;1255;55332;-67
2023/02/27 12:44:19;;;;;;;;;10.00;8.00;25.50;33.60;;;;;;109626;1257;54519;-67
2023/02/27 12:47:04;;;;;;;;;10.67;9.00;25.50;33.60;;;;;;109372;1259;49924;-66
2023/02/27 12:50:00;;;;;;;;;12.67;10.67;25.60;33.60;;;;;;109626;1260;49574;-66
2023/02/27 12:52:55;;;;;;;;;14.00;12.00;25.50;33.50;;;;;;109700;1259;45882;-65
2023/02/27 12:55:26;;;;;;;;;12.00;10.00;25.50;33.50;;;;;;109562;1261;55378;-65